Airfield :
LOGIN :

Register | Disclaimer

   EN    FR    IT 

 










Legend :    VFR   Marginal VFR   IFR   Intensive IFR   Very Intensive IFR
Visi :
Ceiling :
>= 8 km
>= 3000ft
5 to 8 km
1000 to 3000 ft
1500m to 5 km
500 to 1000 ft
800 to 1500m
200 to 500 ft
< 800m
< 200 ft
Symbols :   Thunderstorms  Fog  Heavy snow  Heavy precipitations  Wind > 20 kt
SIGMETs :     Misc.  Thunderstorms  Icing  Turbulence  Mountain Waves  Volcanic Ashes






- Airport Elevation : 123 ft
- IATA code : BLQ


LIPE - Bologna Guglielmo Marconi

CURRENT METAR :
  • 220050Z 21003KT 180V300 CAVOK 08/02 Q1018

EXPIRED METARs :
  • 220020Z VRB02KT CAVOK 09/02 Q1018
  • 212350Z 20004KT CAVOK 08/02 Q1019
  • 212320Z 22003KT 190V250 CAVOK 08/03 Q1019
  • 212250Z 22003KT CAVOK 08/03 Q1019
  • 212220Z 24003KT 210V270 CAVOK 09/03 Q1019
  • 212150Z VRB02KT CAVOK 09/04 Q1020
  • 212120Z 20005KT CAVOK 09/04 Q1020
  • 212050Z 20004KT CAVOK 09/04 Q1020
  • 212020Z 21003KT 170V230 CAVOK 09/03 Q1020

TAF TAF LIPE
Valid from the 22 at 00:00 until the 23 at 00:00 UTC


212300Z 2200/2224 VRB05KT CAVOK
BECMG 2210/2212 22012KT



MET'MAP, your aeronautical weather chart ! - Copyright ORBIFLY December 2007 - Disclaimer

ORBIFLY MET'MAP TEAM :

Programming & Development : Alexandra Zaïnal
Original concept : Baudouin d'Aumeries
Technical & hardware support : Manuel Goepfert
Assistance : Marc-Olivier Méhu




SOURCES & CREDITS :

   NOAA